Time;durP1;ratioP1;P1;durP2;ratioP2;P2;SDS_P1;SDS_P2;PMS_P1;PMS_P2;Temp;Humidity;BMP_temperature;BMP_pressure;BME280_temperature;BME280_humidity;BME280_pressure;Samples;Min_cycle;Max_cycle;Signal;HPM_P1;HPM_P2
2023/08/17 00:02:14;;;;;;;4.13;1.47;;;;;18.40;96185.00;;;;5134219;27;20178;-62
2023/08/17 00:04:41;;;;;;;1.50;1.43;;;;;18.40;96184.00;;;;5136382;27;20205;-61
2023/08/17 00:07:08;;;;;;;1.70;1.57;;;;;18.40;96187.00;;;;5137714;27;20213;-61
2023/08/17 00:09:36;;;;;;;1.00;1.00;;;;;18.40;96189.00;;;;5137590;27;20228;-60
2023/08/17 00:12:04;;;;;;;1.30;1.30;;;;;18.40;96190.00;;;;5137313;27;20634;-61
2023/08/17 00:14:31;;;;;;;0.97;0.97;;;;;18.40;96179.00;;;;5137546;27;20190;-62
2023/08/17 00:16:59;;;;;;;1.87;1.77;;;;;18.50;96186.00;;;;5137093;27;20209;-61
2023/08/17 00:19:27;;;;;;;0.93;0.93;;;;;18.50;96180.00;;;;5137724;27;20197;-62
2023/08/17 00:21:55;;;;;;;0.67;0.67;;;;;18.50;96186.00;;;;5137160;27;20660;-61
2023/08/17 00:24:23;;;;;;;1.80;1.47;;;;;18.50;96187.00;;;;5137184;27;20599;-61
2023/08/17 00:26:50;;;;;;;2.73;2.53;;;;;18.50;96178.00;;;;5136879;27;20209;-61
2023/08/17 00:29:18;;;;;;;1.20;1.20;;;;;18.50;96186.00;;;;5136915;27;20200;-61
2023/08/17 00:31:45;;;;;;;1.57;1.20;;;;;18.40;96181.00;;;;5137638;27;20514;-61
2023/08/17 00:34:13;;;;;;;1.60;1.50;;;;;18.30;96178.00;;;;5137318;27;20245;-62
2023/08/17 00:36:41;;;;;;;1.07;1.07;;;;;18.30;96183.00;;;;5136903;27;20221;-62
2023/08/17 00:39:09;;;;;;;1.63;1.53;;;;;18.20;96182.00;;;;5137098;27;20550;-61
2023/08/17 00:41:36;;;;;;;1.93;1.77;;;;;18.20;96181.00;;;;5136741;27;20276;-61
2023/08/17 00:44:04;;;;;;;1.00;1.00;;;;;18.20;96183.00;;;;5136982;27;20636;-61
2023/08/17 00:46:32;;;;;;;0.90;0.90;;;;;18.10;96183.00;;;;5136618;27;20707;-61
2023/08/17 00:48:59;;;;;;;1.33;1.33;;;;;18.10;96173.00;;;;5136982;27;20185;-62
2023/08/17 00:51:28;;;;;;;1.30;1.30;;;;;18.10;96173.00;;;;5137120;27;20213;-62
2023/08/17 00:53:59;;;;;;;1.50;1.40;;;;;18.20;96179.00;;;;5136973;27;20192;-62
2023/08/17 00:56:28;;;;;;;1.43;1.33;;;;;18.20;96169.00;;;;5137239;27;20209;-61
2023/08/17 00:58:56;;;;;;;0.73;0.73;;;;;18.10;96165.00;;;;5136706;27;20653;-61
2023/08/17 01:01:24;;;;;;;1.80;1.10;;;;;18.00;96163.00;;;;5136624;27;20298;-61
2023/08/17 01:03:51;;;;;;;0.90;0.90;;;;;17.90;96163.00;;;;5136305;27;20664;-61
2023/08/17 01:06:19;;;;;;;0.83;0.83;;;;;17.90;96159.00;;;;5136764;27;20209;-61
2023/08/17 01:08:48;;;;;;;0.77;0.77;;;;;17.90;96157.00;;;;5136307;27;20217;-61
2023/08/17 01:11:23;;;;;;;0.80;0.80;;;;;17.90;96156.00;;;;5136566;27;20246;-62
2023/08/17 01:13:55;;;;;;;1.13;1.13;;;;;18.00;96150.00;;;;5136585;27;20181;-61
2023/08/17 01:16:27;;;;;;;1.43;1.37;;;;;18.00;96152.00;;;;5136242;27;20270;-62
2023/08/17 01:18:55;;;;;;;0.70;0.70;;;;;17.90;96149.00;;;;5136645;27;20190;-62
2023/08/17 01:21:25;;;;;;;0.80;0.80;;;;;17.90;96157.00;;;;5136337;27;20186;-61
2023/08/17 01:23:58;;;;;;;1.07;0.93;;;;;17.90;96152.00;;;;5136108;27;20192;-61
2023/08/17 01:26:25;;;;;;;0.77;0.77;;;;;17.90;96155.00;;;;5136134;27;20209;-61
2023/08/17 01:28:53;;;;;;;0.70;0.70;;;;;17.80;96163.00;;;;5135883;27;20192;-62
2023/08/17 01:31:27;;;;;;;1.27;1.27;;;;;17.80;96163.00;;;;5136293;27;20214;-61
2023/08/17 01:34:00;;;;;;;1.13;1.13;;;;;17.70;96168.00;;;;5135879;27;20181;-62
2023/08/17 01:36:33;;;;;;;1.53;1.23;;;;;17.70;96161.00;;;;5135847;27;20217;-61
2023/08/17 01:39:02;;;;;;;1.20;1.20;;;;;17.60;96156.00;;;;5136415;27;20502;-62
2023/08/17 01:41:31;;;;;;;0.63;0.63;;;;;17.60;96165.00;;;;5135615;27;20285;-61
2023/08/17 01:43:59;;;;;;;1.40;1.33;;;;;17.50;96167.00;;;;5134235;27;20208;-61
2023/08/17 01:46:31;;;;;;;0.90;0.90;;;;;17.50;96176.00;;;;5135410;27;20212;-61
2023/08/17 01:48:58;;;;;;;1.20;1.20;;;;;17.50;96166.00;;;;5135709;27;20178;-62
2023/08/17 01:51:26;;;;;;;0.50;0.50;;;;;17.60;96169.00;;;;5135390;27;20209;-61
2023/08/17 01:53:53;;;;;;;0.50;0.50;;;;;17.60;96168.00;;;;5135351;27;20656;-61
2023/08/17 01:56:22;;;;;;;0.57;0.57;;;;;17.60;96165.00;;;;5135532;27;20205;-61
2023/08/17 01:58:49;;;;;;;1.57;1.47;;;;;17.50;96166.00;;;;5135251;27;20189;-61
2023/08/17 02:01:17;;;;;;;0.93;0.93;;;;;17.60;96166.00;;;;5135342;27;20268;-61
2023/08/17 02:03:44;;;;;;;1.40;1.33;;;;;17.60;96166.00;;;;5135125;27;20651;-61
2023/08/17 02:06:12;;;;;;;0.90;0.90;;;;;17.70;96165.00;;;;5135419;27;20213;-61
2023/08/17 02:08:39;;;;;;;1.17;1.17;;;;;17.70;96163.00;;;;5134039;27;20246;-61
2023/08/17 02:11:09;;;;;;;0.97;0.97;;;;;17.80;96164.00;;;;5135276;27;20657;-61
2023/08/17 02:13:38;;;;;;;1.03;1.03;;;;;17.80;96159.00;;;;5135018;27;20197;-61
2023/08/17 02:16:06;;;;;;;0.90;0.90;;;;;17.70;96158.00;;;;5134824;27;20213;-61
2023/08/17 02:18:34;;;;;;;1.30;1.30;;;;;17.50;96149.00;;;;5135043;27;20186;-60
2023/08/17 02:21:02;;;;;;;1.03;0.93;;;;;17.40;96143.00;;;;5134905;27;20185;-61
2023/08/17 02:23:29;;;;;;;1.13;1.07;;;;;17.40;96148.00;;;;5134920;27;20193;-61
2023/08/17 02:25:57;;;;;;;1.13;1.13;;;;;17.40;96149.00;;;;5134899;27;20205;-61
2023/08/17 02:28:24;;;;;;;0.90;0.90;;;;;17.40;96144.00;;;;5134864;27;20201;-61
2023/08/17 02:30:56;;;;;;;1.37;1.10;;;;;17.40;96143.00;;;;5134779;27;20277;-61
2023/08/17 02:33:24;;;;;;;0.63;0.63;;;;;17.40;96144.00;;;;5134936;27;20188;-61
2023/08/17 02:35:52;;;;;;;1.00;1.00;;;;;17.40;96142.00;;;;5134568;27;20185;-61
2023/08/17 02:38:19;;;;;;;0.77;0.77;;;;;17.40;96134.00;;;;5134628;27;20193;-62
2023/08/17 02:40:46;;;;;;;1.13;1.10;;;;;17.50;96138.00;;;;5134542;27;20212;-61
2023/08/17 02:43:14;;;;;;;1.40;1.30;;;;;17.60;96132.00;;;;5134781;27;20190;-60
2023/08/17 02:45:41;;;;;;;1.70;1.40;;;;;17.60;96131.00;;;;5134655;27;20189;-61
2023/08/17 02:48:10;;;;;;;1.83;1.47;;;;;17.60;96132.00;;;;5135332;27;20556;-61
2023/08/17 02:50:37;;;;;;;2.13;1.97;;;;;17.60;96130.00;;;;5134662;27;20213;-61
2023/08/17 02:53:05;;;;;;;1.13;1.13;;;;;17.60;96130.00;;;;5134427;27;20201;-61
2023/08/17 02:55:32;;;;;;;0.80;0.80;;;;;17.70;96124.00;;;;5134487;27;20189;-61
2023/08/17 02:58:00;;;;;;;0.90;0.90;;;;;17.60;96122.00;;;;5134784;27;20196;-61
2023/08/17 03:00:27;;;;;;;0.97;0.97;;;;;17.60;96124.00;;;;5134348;27;20189;-61
2023/08/17 03:02:54;;;;;;;1.37;1.27;;;;;17.50;96120.00;;;;5134369;27;20193;-62
2023/08/17 03:05:23;;;;;;;1.50;1.40;;;;;17.50;96116.00;;;;5134329;27;20197;-61
2023/08/17 03:07:51;;;;;;;1.63;1.53;;;;;17.30;96111.00;;;;5134323;28;20220;-61
2023/08/17 03:10:18;;;;;;;1.07;1.07;;;;;17.40;96112.00;;;;5134071;28;20586;-61
2023/08/17 03:12:46;;;;;;;1.00;1.00;;;;;17.40;96099.00;;;;5134098;28;20192;-61
2023/08/17 03:15:13;;;;;;;1.20;1.20;;;;;17.50;96106.00;;;;5134211;28;20200;-61
2023/08/17 03:17:40;;;;;;;1.17;0.80;;;;;17.50;96094.00;;;;5134155;28;20213;-60
2023/08/17 03:20:09;;;;;;;1.37;1.30;;;;;17.50;96099.00;;;;5134009;28;20193;-60
2023/08/17 03:22:38;;;;;;;0.57;0.57;;;;;17.50;96096.00;;;;5134610;28;20190;-60
2023/08/17 03:25:06;;;;;;;1.20;1.13;;;;;17.60;96094.00;;;;5134118;28;20212;-60
2023/08/17 03:27:34;;;;;;;0.93;0.93;;;;;17.60;96094.00;;;;5134482;28;20213;-60
2023/08/17 03:30:01;;;;;;;1.30;1.30;;;;;17.70;96092.00;;;;5134022;28;20533;-60
2023/08/17 03:32:29;;;;;;;1.13;1.13;;;;;17.70;96086.00;;;;5134481;28;20217;-60
2023/08/17 03:34:56;;;;;;;0.90;0.90;;;;;17.70;96082.00;;;;5134052;28;20665;-61
2023/08/17 03:37:23;;;;;;;1.20;1.20;;;;;17.70;96078.00;;;;5134072;27;20210;-61
2023/08/17 03:39:52;;;;;;;0.70;0.70;;;;;17.50;96091.00;;;;5137920;27;20660;-61
2023/08/17 03:42:20;;;;;;;1.30;1.20;;;;;17.70;96086.00;;;;5138110;27;20181;-61
2023/08/17 03:44:47;;;;;;;0.77;0.77;;;;;17.50;96081.00;;;;5137959;27;20213;-61
2023/08/17 03:47:15;;;;;;;0.70;0.70;;;;;17.50;96078.00;;;;5137773;27;20228;-60
2023/08/17 03:49:42;;;;;;;1.00;1.00;;;;;17.30;96085.00;;;;5137700;27;20220;-61
2023/08/17 03:52:10;;;;;;;1.00;1.00;;;;;17.30;96082.00;;;;5137725;27;20213;-60
2023/08/17 03:54:37;;;;;;;0.90;0.90;;;;;17.30;96087.00;;;;5137744;27;20195;-60
2023/08/17 03:57:06;;;;;;;1.83;1.73;;;;;17.20;96085.00;;;;5138337;27;20232;-62
2023/08/17 03:59:33;;;;;;;1.43;1.33;;;;;17.20;96084.00;;;;5137742;27;20189;-61
2023/08/17 04:02:01;;;;;;;1.27;1.27;;;;;17.20;96084.00;;;;5137830;27;20190;-61
2023/08/17 04:04:28;;;;;;;1.47;1.37;;;;;17.10;96084.00;;;;5137411;27;20652;-61
2023/08/17 04:06:56;;;;;;;1.60;1.50;;;;;17.10;96087.00;;;;5137444;27;20215;-61
2023/08/17 04:09:23;;;;;;;1.07;1.07;;;;;17.20;96090.00;;;;5137602;27;20197;-61
2023/08/17 04:11:51;;;;;;;0.93;0.93;;;;;17.20;96090.00;;;;5137612;27;20710;-61
2023/08/17 04:14:19;;;;;;;1.13;1.13;;;;;17.20;96093.00;;;;5137339;27;20254;-61
2023/08/17 04:16:47;;;;;;;0.90;0.90;;;;;17.20;96098.00;;;;5137473;27;20209;-61
2023/08/17 04:19:14;;;;;;;1.00;1.00;;;;;17.30;96097.00;;;;5137728;27;20618;-61
2023/08/17 04:21:41;;;;;;;1.50;1.30;;;;;17.30;96101.00;;;;5137160;27;20211;-61
2023/08/17 04:24:09;;;;;;;1.03;1.03;;;;;17.40;96104.00;;;;5137313;27;20250;-62
2023/08/17 04:26:36;;;;;;;1.87;1.77;;;;;17.40;96119.00;;;;5137069;27;20213;-61
2023/08/17 04:29:04;;;;;;;1.50;1.40;;;;;17.40;96110.00;;;;5137042;27;20660;-62
2023/08/17 04:31:33;;;;;;;0.97;0.97;;;;;17.40;96116.00;;;;5137075;27;20217;-62
2023/08/17 04:34:00;;;;;;;1.27;1.27;;;;;17.40;96111.00;;;;5137432;27;20541;-61
2023/08/17 04:36:28;;;;;;;0.97;0.97;;;;;17.50;96104.00;;;;5136995;27;20209;-60
2023/08/17 04:38:55;;;;;;;0.90;0.90;;;;;17.50;96110.00;;;;5136977;27;20193;-60
2023/08/17 04:41:22;;;;;;;1.43;1.33;;;;;17.60;96097.00;;;;5136819;27;20601;-61
2023/08/17 04:43:50;;;;;;;1.80;1.70;;;;;17.60;96102.00;;;;5137359;27;20189;-60
2023/08/17 04:46:17;;;;;;;1.30;1.30;;;;;17.70;96097.00;;;;5136856;27;20262;-60
2023/08/17 04:48:46;;;;;;;2.67;2.47;;;;;17.70;96111.00;;;;5136409;27;20185;-60
2023/08/17 04:51:14;;;;;;;1.67;1.57;;;;;17.70;96105.00;;;;5135371;27;20224;-61
2023/08/17 04:53:42;;;;;;;1.97;1.87;;;;;17.70;96110.00;;;;5136876;27;20281;-61
2023/08/17 04:56:09;;;;;;;0.83;0.83;;;;;17.70;96109.00;;;;5136422;27;20211;-60
2023/08/17 04:58:36;;;;;;;1.83;1.60;;;;;17.70;96119.00;;;;5136365;27;20200;-61
2023/08/17 05:01:04;;;;;;;0.90;0.90;;;;;17.70;96119.00;;;;5136393;27;20189;-60
2023/08/17 05:03:31;;;;;;;1.23;1.23;;;;;17.60;96114.00;;;;5136225;27;20538;-60
2023/08/17 05:06:00;;;;;;;5.47;1.83;;;;;17.70;96113.00;;;;5136560;27;20217;-60
2023/08/17 05:08:27;;;;;;;2.20;1.73;;;;;17.60;96114.00;;;;5137000;27;20674;-61
2023/08/17 05:10:55;;;;;;;2.33;1.60;;;;;17.70;96120.00;;;;5136347;27;20197;-61
2023/08/17 05:13:22;;;;;;;1.80;1.47;;;;;17.70;96118.00;;;;5135560;27;20258;-61
2023/08/17 05:15:50;;;;;;;1.23;1.20;;;;;17.70;96116.00;;;;5136122;27;20221;-61
2023/08/17 05:18:17;;;;;;;1.13;1.13;;;;;17.80;96116.00;;;;5136325;27;20190;-61
2023/08/17 05:20:44;;;;;;;2.03;1.83;;;;;17.80;96115.00;;;;5136070;27;20185;-61
2023/08/17 05:23:13;;;;;;;0.90;0.90;;;;;17.80;96120.00;;;;5135891;27;20192;-60
2023/08/17 05:25:41;;;;;;;0.90;0.90;;;;;17.90;96125.00;;;;5136336;27;20193;-61
2023/08/17 05:28:08;;;;;;;1.17;1.17;;;;;17.90;96119.00;;;;5136350;27;20193;-61
2023/08/17 05:30:36;;;;;;;1.57;1.47;;;;;17.80;96125.00;;;;5136288;27;20200;-60
2023/08/17 05:33:03;;;;;;;1.00;1.00;;;;;17.80;96124.00;;;;5133304;27;20205;-59
2023/08/17 05:35:31;;;;;;;1.30;1.30;;;;;17.90;96128.00;;;;5131144;27;20198;-60
2023/08/17 05:37:58;;;;;;;1.43;1.33;;;;;17.80;96130.00;;;;5132194;27;20689;-60
2023/08/17 05:40:27;;;;;;;1.20;1.20;;;;;17.80;96134.00;;;;5133888;27;20208;-59
2023/08/17 05:42:54;;;;;;;1.63;1.40;;;;;17.80;96131.00;;;;5134170;27;20209;-61
2023/08/17 05:45:22;;;;;;;2.83;2.63;;;;;17.70;96138.00;;;;5134083;27;20204;-60
2023/08/17 05:47:49;;;;;;;4.50;1.33;;;;;17.70;96140.00;;;;5133576;27;20217;-60
2023/08/17 05:50:17;;;;;;;1.33;1.30;;;;;17.80;96137.00;;;;5133974;27;20201;-60
2023/08/17 05:52:44;;;;;;;1.43;1.43;;;;;17.90;96137.00;;;;5133154;27;20221;-60
2023/08/17 05:55:12;;;;;;;1.10;1.10;;;;;17.80;96138.00;;;;5132626;27;20777;-61
2023/08/17 05:57:40;;;;;;;0.80;0.80;;;;;17.90;96139.00;;;;5133330;27;20588;-61
2023/08/17 06:00:12;;;;;;;1.60;1.50;;;;;18.00;96138.00;;;;5132251;27;20189;-61
2023/08/17 06:02:39;;;;;;;4.33;2.47;;;;;18.10;96145.00;;;;5133116;27;20213;-61
2023/08/17 06:05:08;;;;;;;2.30;2.10;;;;;18.20;96149.00;;;;5134279;27;20201;-61
2023/08/17 06:07:36;;;;;;;1.57;1.47;;;;;18.30;96158.00;;;;5133181;27;20221;-61
2023/08/17 06:10:06;;;;;;;1.47;1.37;;;;;18.30;96154.00;;;;5133702;27;20205;-61
2023/08/17 06:12:34;;;;;;;1.43;1.33;;;;;18.30;96151.00;;;;5131462;27;20569;-61
2023/08/17 06:15:04;;;;;;;2.33;2.13;;;;;18.20;96148.00;;;;5132565;27;20196;-60
2023/08/17 06:17:31;;;;;;;1.27;1.17;;;;;18.10;96153.00;;;;5132590;27;20221;-60
2023/08/17 06:19:59;;;;;;;1.00;1.00;;;;;18.10;96145.00;;;;5133255;27;20209;-61
2023/08/17 06:22:26;;;;;;;1.33;1.23;;;;;18.10;96156.00;;;;5132955;27;20193;-61
2023/08/17 06:24:53;;;;;;;1.47;1.43;;;;;18.30;96151.00;;;;5134386;27;20201;-61
2023/08/17 06:27:21;;;;;;;1.87;1.17;;;;;18.30;96145.00;;;;5132922;27;20227;-61
2023/08/17 06:29:48;;;;;;;2.10;2.00;;;;;18.40;96138.00;;;;5133589;27;20208;-61
2023/08/17 06:32:17;;;;;;;1.77;1.67;;;;;18.50;96137.00;;;;5133084;27;20273;-61
2023/08/17 06:34:45;;;;;;;1.60;1.50;;;;;18.50;96134.00;;;;5133188;27;20284;-62
2023/08/17 06:37:12;;;;;;;1.40;1.30;;;;;18.40;96144.00;;;;5132518;27;20585;-61
2023/08/17 06:39:40;;;;;;;1.00;1.00;;;;;18.40;96141.00;;;;5133413;27;20268;-60
2023/08/17 06:42:07;;;;;;;1.27;1.27;;;;;18.60;96135.00;;;;5132012;27;20246;-61
2023/08/17 06:44:35;;;;;;;1.67;1.47;;;;;18.70;96135.00;;;;5132677;27;20189;-61
2023/08/17 06:47:02;;;;;;;1.03;1.03;;;;;18.90;96143.00;;;;5131810;27;20224;-60
2023/08/17 06:49:32;;;;;;;1.17;1.07;;;;;18.90;96137.00;;;;5132979;27;20242;-61
2023/08/17 06:51:59;;;;;;;0.97;0.97;;;;;18.80;96140.00;;;;5131615;27;20217;-62
2023/08/17 06:54:27;;;;;;;1.13;1.10;;;;;19.20;96138.00;;;;5132494;27;20193;-61
2023/08/17 06:56:54;;;;;;;1.60;1.53;;;;;19.40;96140.00;;;;5132227;27;20224;-61
2023/08/17 06:59:22;;;;;;;0.50;0.50;;;;;19.50;96140.00;;;;5132526;27;20193;-61
2023/08/17 07:01:50;;;;;;;0.97;0.90;;;;;19.60;96145.00;;;;5132505;27;20190;-61
2023/08/17 07:04:17;;;;;;;2.20;1.27;;;;;19.70;96147.00;;;;5132707;27;20205;-61
2023/08/17 07:06:46;;;;;;;0.87;0.87;;;;;19.80;96143.00;;;;5132255;27;20209;-61
2023/08/17 07:09:13;;;;;;;0.97;0.97;;;;;19.80;96141.00;;;;5132181;28;20211;-61
2023/08/17 07:11:41;;;;;;;1.77;1.67;;;;;20.00;96137.00;;;;5132708;27;20205;-61
2023/08/17 07:14:08;;;;;;;1.10;1.10;;;;;20.10;96132.00;;;;5139320;27;20531;-61
2023/08/17 07:16:35;;;;;;;1.60;1.50;;;;;20.00;96132.00;;;;5138547;27;20217;-61
2023/08/17 07:19:04;;;;;;;1.10;1.10;;;;;19.90;96133.00;;;;5138066;27;20537;-61
2023/08/17 07:21:31;;;;;;;0.90;0.90;;;;;20.00;96141.00;;;;5139137;27;20199;-61
2023/08/17 07:24:11;;;;;;;1.20;1.20;;;;;20.00;96140.00;;;;5139238;27;20205;-61
2023/08/17 07:26:39;;;;;;;1.07;0.97;;;;;20.20;96132.00;;;;5139029;27;20217;-60
2023/08/17 07:29:06;;;;;;;1.13;1.13;;;;;20.30;96132.00;;;;5138902;27;20196;-60
2023/08/17 07:31:37;;;;;;;1.30;1.30;;;;;20.20;96137.00;;;;5139183;27;20207;-60
2023/08/17 07:34:04;;;;;;;1.13;1.13;;;;;20.20;96135.00;;;;5138858;27;20515;-60
2023/08/17 07:36:32;;;;;;;1.20;1.20;;;;;20.30;96137.00;;;;5138750;27;20208;-60
2023/08/17 07:39:01;;;;;;;1.37;1.27;;;;;20.40;96142.00;;;;5138017;27;20554;-60
2023/08/17 07:41:29;;;;;;;0.70;0.70;;;;;20.40;96137.00;;;;5138939;27;20203;-60
2023/08/17 07:43:56;;;;;;;1.17;1.07;;;;;20.50;96143.00;;;;5139223;27;20194;-61
2023/08/17 07:46:24;;;;;;;0.90;0.90;;;;;20.70;96139.00;;;;5138730;27;20291;-60
2023/08/17 07:48:51;;;;;;;1.08;1.08;;;;;20.70;96144.00;;;;5139026;27;20209;-61
2023/08/17 07:51:19;;;;;;;1.42;1.40;;;;;20.80;96138.00;;;;5137308;27;20664;-60
2023/08/17 07:53:47;;;;;;;1.38;1.02;;;;;21.00;96141.00;;;;5138652;27;20680;-60
2023/08/17 07:56:15;;;;;;;1.73;1.55;;;;;21.20;96134.00;;;;5138920;27;20573;-61
2023/08/17 07:58:43;;;;;;;1.83;1.73;;;;;21.20;96137.00;;;;5138795;27;20245;-61
2023/08/17 08:01:10;;;;;;;0.98;0.98;;;;;21.40;96141.00;;;;5138572;27;20197;-60
2023/08/17 08:03:38;;;;;;;1.10;1.10;;;;;21.40;96138.00;;;;5138393;27;20185;-60
2023/08/17 08:06:05;;;;;;;1.38;1.38;;;;;21.40;96144.00;;;;5138924;27;20221;-60
2023/08/17 08:08:33;;;;;;;0.82;0.82;;;;;21.50;96143.00;;;;5138871;27;20588;-61
2023/08/17 08:11:00;;;;;;;1.98;1.88;;;;;21.70;96141.00;;;;5138968;27;20194;-61
2023/08/17 08:13:29;;;;;;;1.10;1.10;;;;;21.80;96147.00;;;;5138554;27;20703;-61
2023/08/17 08:15:57;;;;;;;1.73;1.63;;;;;21.80;96150.00;;;;5138557;27;20266;-60
2023/08/17 08:18:24;;;;;;;0.70;0.70;;;;;21.90;96151.00;;;;5138641;27;20587;-61
2023/08/17 08:20:51;;;;;;;0.93;0.93;;;;;22.00;96140.00;;;;5138719;27;20205;-60
2023/08/17 08:23:19;;;;;;;1.75;1.65;;;;;22.20;96139.00;;;;5136817;27;20288;-61
2023/08/17 08:25:46;;;;;;;1.15;1.13;;;;;22.40;96132.00;;;;5134187;27;20193;-61
2023/08/17 08:28:14;;;;;;;1.27;1.27;;;;;22.60;96139.00;;;;5135189;27;20197;-60
2023/08/17 08:30:42;;;;;;;0.90;0.90;;;;;22.40;96126.00;;;;5135807;27;20592;-60
2023/08/17 08:33:10;;;;;;;1.27;1.27;;;;;22.40;96137.00;;;;5130848;27;20210;-61
2023/08/17 08:35:39;;;;;;;1.52;1.42;;;;;22.40;96134.00;;;;5134319;27;20209;-61
2023/08/17 08:38:07;;;;;;;1.17;1.17;;;;;22.80;96137.00;;;;5134372;27;20580;-62
2023/08/17 08:40:38;;;;;;;0.90;0.90;;;;;22.90;96135.00;;;;5135085;27;20201;-62
2023/08/17 08:43:05;;;;;;;1.25;1.15;;;;;23.10;96140.00;;;;5130399;27;20194;-61
2023/08/17 08:45:33;;;;;;;1.58;1.30;;;;;23.20;96134.00;;;;5135086;27;20208;-61
2023/08/17 08:48:03;;;;;;;0.70;0.70;;;;;23.00;96141.00;;;;5134756;27;20198;-61
2023/08/17 08:50:36;;;;;;;1.77;1.67;;;;;23.10;96140.00;;;;5135050;27;20275;-61
2023/08/17 08:53:08;;;;;;;2.15;2.05;;;;;23.30;96143.00;;;;5134711;27;20205;-61
2023/08/17 08:55:38;;;;;;;1.25;1.25;;;;;23.50;96141.00;;;;5133820;27;20547;-61
2023/08/17 08:58:07;;;;;;;1.15;1.15;;;;;23.80;96144.00;;;;5134643;27;20219;-61
2023/08/17 09:00:35;;;;;;;1.00;1.00;;;;;23.90;96135.00;;;;5134412;27;20189;-61
2023/08/17 09:03:06;;;;;;;1.92;1.83;;;;;24.00;96134.00;;;;5134804;27;20193;-62
2023/08/17 09:05:35;;;;;;;1.67;1.58;;;;;23.90;96129.00;;;;5134873;27;20520;-61
2023/08/17 09:08:04;;;;;;;1.17;1.17;;;;;24.10;96137.00;;;;5134353;27;20267;-61
2023/08/17 09:10:32;;;;;;;1.00;1.00;;;;;24.20;96129.00;;;;5134813;27;20544;-60
2023/08/17 09:12:59;;;;;;;1.52;1.42;;;;;24.10;96134.00;;;;5133115;27;20209;-61
2023/08/17 09:15:27;;;;;;;1.30;1.30;;;;;24.10;96136.00;;;;5134344;27;20580;-61
2023/08/17 09:17:54;;;;;;;1.17;1.17;;;;;24.10;96132.00;;;;5133868;27;20700;-62
2023/08/17 09:20:40;;;;;;;1.80;1.27;;;;;24.30;96134.00;;;;5134571;27;20189;-62
2023/08/17 09:23:12;;;;;;;1.10;1.00;;;;;24.20;96132.00;;;;5132734;27;20614;-62
2023/08/17 09:25:41;;;;;;;1.00;1.00;;;;;24.30;96135.00;;;;5134500;27;20181;-62
2023/08/17 09:28:10;;;;;;;1.02;1.02;;;;;24.50;96132.00;;;;5133841;27;20201;-62
2023/08/17 09:30:58;;;;;;;1.83;1.30;;;;;24.50;96127.00;;;;5133592;27;20556;-62
2023/08/17 09:33:27;;;;;;;0.90;0.90;;;;;24.80;96130.00;;;;5133704;27;20206;-62
2023/08/17 09:35:57;;;;;;;0.77;0.77;;;;;24.70;96128.00;;;;5128222;27;20190;-62
2023/08/17 09:38:25;;;;;;;0.85;0.85;;;;;24.80;96124.00;;;;5133819;27;20543;-61
2023/08/17 09:40:53;;;;;;;2.33;2.00;;;;;24.70;96123.00;;;;5133652;27;20223;-61
2023/08/17 09:43:21;;;;;;;1.00;1.00;;;;;24.70;96121.00;;;;5133931;27;20189;-61
2023/08/17 09:45:50;;;;;;;1.55;1.45;;;;;24.80;96124.00;;;;5133726;27;20276;-61
2023/08/17 09:48:19;;;;;;;0.77;0.77;;;;;25.10;96122.00;;;;5133540;27;20193;-61
2023/08/17 09:50:48;;;;;;;1.30;1.30;;;;;25.10;96114.00;;;;5133642;27;20207;-62
2023/08/17 09:53:18;;;;;;;1.55;1.45;;;;;25.10;96125.00;;;;5133440;27;20698;-61
2023/08/17 09:55:46;;;;;;;0.82;0.82;;;;;25.00;96126.00;;;;5133413;27;20284;-60
2023/08/17 09:58:15;;;;;;;1.70;1.60;;;;;25.00;96116.00;;;;5132350;27;20656;-61
2023/08/17 10:00:46;;;;;;;0.68;0.68;;;;;25.30;96116.00;;;;5131115;27;20794;-61
2023/08/17 10:03:16;;;;;;;0.90;0.90;;;;;25.30;96115.00;;;;5133016;27;20561;-61
2023/08/17 10:05:46;;;;;;;1.30;1.20;;;;;25.60;96114.00;;;;5133172;27;20242;-61
2023/08/17 10:08:16;;;;;;;0.75;0.75;;;;;25.50;96108.00;;;;5131739;27;20562;-62
2023/08/17 10:10:45;;;;;;;3.05;1.27;;;;;25.50;96112.00;;;;5133798;27;20213;-61
2023/08/17 10:13:19;;;;;;;0.98;0.98;;;;;25.70;96113.00;;;;5131796;27;20220;-61
2023/08/17 10:15:58;;;;;;;1.60;1.50;;;;;25.70;96114.00;;;;5132736;27;20205;-61
2023/08/17 10:18:31;;;;;;;0.80;0.80;;;;;25.70;96115.00;;;;5130063;27;20640;-61
2023/08/17 10:21:04;;;;;;;1.52;1.42;;;;;26.20;96113.00;;;;5131686;27;20275;-61
2023/08/17 10:23:34;;;;;;;0.80;0.80;;;;;26.50;96125.00;;;;5131140;27;20195;-61
2023/08/17 10:26:03;;;;;;;1.67;1.58;;;;;26.50;96121.00;;;;5132623;27;20228;-61
2023/08/17 10:28:33;;;;;;;0.82;0.82;;;;;26.90;96121.00;;;;5131798;27;20224;-61
2023/08/17 10:31:01;;;;;;;1.00;1.00;;;;;27.00;96128.00;;;;5132355;27;20189;-61
2023/08/17 10:33:29;;;;;;;0.98;0.98;;;;;27.00;96132.00;;;;5131707;27;20216;-61
2023/08/17 10:35:58;;;;;;;1.35;1.25;;;;;27.30;96133.00;;;;5130844;27;20217;-61
2023/08/17 10:38:25;;;;;;;1.45;1.35;;;;;27.30;96117.00;;;;5131713;27;20649;-61
2023/08/17 10:41:13;;;;;;;0.95;0.95;;;;;27.60;96121.00;;;;5132258;27;20205;-61
2023/08/17 10:43:56;;;;;;;1.55;1.45;;;;;27.40;96120.00;;;;5129654;27;20287;-61
2023/08/17 10:46:34;;;;;;;0.90;0.90;;;;;27.80;96115.00;;;;5131828;27;20220;-61
2023/08/17 10:49:06;;;;;;;1.15;1.15;;;;;28.10;96127.00;;;;5131502;27;20221;-61
2023/08/17 10:51:34;;;;;;;1.33;1.23;;;;;28.00;96112.00;;;;5131350;27;20224;-61
2023/08/17 10:54:04;;;;;;;1.00;1.00;;;;;28.50;96108.00;;;;5130821;27;20212;-61
2023/08/17 10:56:34;;;;;;;1.30;1.20;;;;;28.80;96117.00;;;;5132769;27;20668;-61
2023/08/17 10:59:02;;;;;;;0.80;0.80;;;;;29.00;96117.00;;;;5132661;27;20185;-61
2023/08/17 11:01:34;;;;;;;1.00;1.00;;;;;28.80;96122.00;;;;5132684;27;20716;-61
2023/08/17 11:04:16;;;;;;;1.05;1.05;;;;;28.70;96127.00;;;;5131987;27;20229;-60
2023/08/17 11:06:44;;;;;;;1.63;1.52;;;;;28.20;96127.00;;;;5128004;27;20707;-61
2023/08/17 11:09:12;;;;;;;1.00;1.00;;;;;27.90;96122.00;;;;5131138;27;20194;-61
2023/08/17 11:11:41;;;;;;;1.13;1.13;;;;;28.20;96108.00;;;;5132940;28;20546;-60
2023/08/17 11:14:09;;;;;;;1.17;1.17;;;;;28.40;96111.00;;;;5131667;28;20217;-61
2023/08/17 11:16:37;;;;;;;1.50;1.40;;;;;28.40;96099.00;;;;5132329;28;20217;-60
2023/08/17 11:19:04;;;;;;;1.85;1.55;;;;;28.50;96097.00;;;;5131795;28;20201;-61
2023/08/17 11:21:32;;;;;;;1.00;1.00;;;;;28.70;96098.00;;;;5132391;28;20200;-60
2023/08/17 11:24:00;;;;;;;1.40;1.30;;;;;29.00;96090.00;;;;5132034;28;20193;-60
2023/08/17 11:26:28;;;;;;;1.10;1.10;;;;;29.20;96114.00;;;;5131184;28;20224;-60
2023/08/17 11:28:57;;;;;;;1.15;1.15;;;;;28.30;96126.00;;;;5132000;28;20601;-60
2023/08/17 11:31:26;;;;;;;0.95;0.95;;;;;28.20;96122.00;;;;5131215;28;20216;-61
2023/08/17 11:33:53;;;;;;;1.15;1.10;;;;;28.10;96119.00;;;;5131620;28;20220;-61
2023/08/17 11:36:22;;;;;;;1.88;1.77;;;;;27.80;96117.00;;;;5131678;28;20224;-61
2023/08/17 11:38:50;;;;;;;1.45;1.35;;;;;27.70;96126.00;;;;5130927;28;20194;-62
2023/08/17 11:41:18;;;;;;;1.75;1.65;;;;;28.00;96117.00;;;;5132350;28;20201;-61
2023/08/17 11:43:46;;;;;;;1.40;1.30;;;;;28.00;96135.00;;;;5131313;28;20204;-61
2023/08/17 11:46:16;;;;;;;1.83;1.60;;;;;28.00;96130.00;;;;5131839;28;20225;-61
2023/08/17 11:48:43;;;;;;;1.52;1.45;;;;;27.50;96136.00;;;;5132136;28;20193;-61
2023/08/17 11:51:11;;;;;;;1.00;1.00;;;;;27.40;96144.00;;;;5131926;28;20193;-61
2023/08/17 11:53:39;;;;;;;1.05;1.00;;;;;27.00;96150.00;;;;5131923;28;20255;-62
2023/08/17 11:56:07;;;;;;;1.63;1.52;;;;;26.80;96151.00;;;;5131935;28;20247;-61
2023/08/17 11:58:41;;;;;;;1.08;1.08;;;;;26.80;96156.00;;;;5132427;27;20197;-61
2023/08/17 12:01:11;;;;;;;0.90;0.90;;;;;26.80;96159.00;;;;5135977;27;20656;-61
2023/08/17 12:03:41;;;;;;;1.48;1.38;;;;;26.80;96166.00;;;;5135900;27;20215;-61
2023/08/17 12:06:09;;;;;;;1.60;1.50;;;;;26.60;96168.00;;;;5135540;27;20285;-61
2023/08/17 12:08:36;;;;;;;1.33;1.33;;;;;25.90;96208.00;;;;5134446;27;20244;-61
2023/08/17 12:11:04;;;;;;;1.45;1.35;;;;;24.70;96218.00;;;;5135650;27;20202;-61
2023/08/17 12:13:36;;;;;;;0.88;0.88;;;;;24.40;96205.00;;;;5135601;27;20356;-61
2023/08/17 12:16:04;;;;;;;1.00;1.00;;;;;24.30;96209.00;;;;5135641;27;20270;-60
2023/08/17 12:18:34;;;;;;;0.80;0.80;;;;;23.40;96212.00;;;;5135974;27;20193;-60
2023/08/17 12:21:05;;;;;;;1.67;1.58;;;;;23.20;96220.00;;;;5136224;27;20213;-61
2023/08/17 12:23:34;;;;;;;1.10;0.98;;;;;23.10;96206.00;;;;5135689;27;20188;-60
2023/08/17 12:26:02;;;;;;;1.35;1.27;;;;;23.20;96183.00;;;;5135534;27;20217;-61